Nearby METAR Reports

 

EDNY - Friedrichshafen, Germany
Distance from station: O 31km
aktuell: 30.03.2015 07:20
geschlossene Wolkendecke
geschlossene Wolkendecke
 Wind von WSW
Wind: WSW 31 km/h
Temperatur: 9°C
gefühlte Temperatur: 5°C
Taupunkt: 4°C
Luftfeuchte: 71%
Luftdruck: 1003 hPa
Clouds: geschlossene Wolkendecke
Visibility: 10 km
Cloud details: geschlossene Wolkendecke 762 m
2015/03/30 05:20 EDNY 300520Z 24017KT 9999 OVC025 09/04 Q1003 RMK C
LSZR - Rheineck/Altenrh, Switzerland
Distance from station: SO 42km
aktuell: 30.03.2015 07:20
Nearby showers, teilweise bewölkt
Nearby showers, teilweise bewölkt
 Wind von WSW
Wind: WSW 22 km/h, Windböen: 44 km/h
Temperatur: 11°C
Taupunkt: 5°C
Luftfeuchte: 67%
Luftdruck: 1004 hPa
Zusammenfassung: Nearby Showers
Clouds: teilweise bewölkt
Visibility: 10 km
Cloud details: teilweise bewölkt 1524 m
2015/03/30 05:20 LSZR 300520Z 24012G24KT 210V300 9999 VCSH SCT050 11/05 Q1004 NOSIG RMK B
LSZH - Zurich-Kloten (a, Switzerland
Distance from station: WSW 49km
aktuell: 30.03.2015 07:20
sehr leichter Niederschlag, stark bewölkt
sehr leichter Niederschlag, stark bewölkt
 Wind von SW
Wind: SW 31 km/h
Temperatur: 9°C
gefühlte Temperatur: 5°C
Taupunkt: 7°C
Luftfeuchte: 87%
Luftdruck: 1005 hPa
Zusammenfassung: sehr leichter Niederschlag
Clouds: stark bewölkt
Visibility: 10 km
Cloud details: Few Clouds 427 m
teilweise bewölkt 518 m
stark bewölkt 914 m
2015/03/30 05:20 LSZH 300520Z 23017KT 9999 -RA FEW014 SCT017 BKN030 09/07 Q1005 TEMPO RA
 
EDTD - Donaueschingen, Germany
Distance from station: NW 53km
aktuell: 30.04.2014 18:20
NOT Current
sehr leichter Niederschlag, geschlossene Wolkendecke
sehr leichter Niederschlag, geschlossene Wolkendecke
 Wind von SSW
Wind: SSW 9 km/h
Temperatur: 10°C
gefühlte Temperatur: 9°C
Taupunkt: 10°C
Luftfeuchte: 100%
Luftdruck: 1011 hPa
Zusammenfassung: sehr leichter Niederschlag
Clouds: geschlossene Wolkendecke
Visibility: 9 km
Cloud details: stark bewölkt 213 m
geschlossene Wolkendecke 335 m
2014/04/30 16:20 EDTD 301620Z 20005KT 9000 -RA BKN007 OVC011 10/10 Q1011 LAST ?
ETGZ - Messstetten, Germany
Distance from station: N 54km
aktuell: 30.09.2013 14:20
NOT Current
geschlossene Wolkendecke
geschlossene Wolkendecke
 Wind von varies
Wind: varies 4 km/h
Temperatur: 8°C
Taupunkt: 7°C
Luftfeuchte: 93%
Luftdruck: 1007 hPa
Clouds: geschlossene Wolkendecke
Visibility: 10 km
Cloud details: geschlossene Wolkendecke 213 m
2013/09/30 12:20 ETGZ 301220Z VRB02KT 9999 OVC007 08/07 Q1007 GRN
LOIH - Hohenems-Dornbir, Austria
Distance from station: SO 57km
aktuell: 29.03.2015 17:00
NOT Current
sehr leichter Niederschlag, stark bewölkt
sehr leichter Niederschlag, stark bewölkt
 Wind von calm
Wind: Windstill
Temperatur: 12°C
Taupunkt: 9°C
Luftfeuchte: 82%
Luftdruck: 1010 hPa
Zusammenfassung: sehr leichter Niederschlag
Clouds: stark bewölkt
Cloud details: teilweise bewölkt 914 m
stark bewölkt 1524 m
2015/03/29 15:00 LOIH 291500Z 00000KT 25KM -RA SCT030CU BKN050SC 12/09 Q1010 RMK OVC
 
ETHL - Laupheim (ger-Ar, Germany
Distance from station: NO 84km
aktuell: 30.03.2015 07:20
Regen, geschlossene Wolkendecke
Regen, geschlossene Wolkendecke
 Wind von WNW
Wind: WNW 30 km/h, Windböen: 48 km/h
Temperatur: 7°C
gefühlte Temperatur: 3°C
Taupunkt: 5°C
Luftfeuchte: 87%
Luftdruck: 1002 hPa
Zusammenfassung: Regen
Clouds: geschlossene Wolkendecke
Visibility: 9 km
Cloud details: teilweise bewölkt 366 m
stark bewölkt 975 m
geschlossene Wolkendecke 1524 m
2015/03/30 05:20 ETHL 300520Z 29016G26KT 9000 RA SCT012 BKN032 OVC050 07/05 Q1002 RERA BLU BLU TEMPO GRN
EDJA - Memmingen Allgau, Germany
Distance from station: ONO 90km
aktuell: 30.03.2015 07:20
sehr leichter Niederschlag, geschlossene Wolkendecke
sehr leichter Niederschlag, geschlossene Wolkendecke
 Wind von SW
Wind: SW 35 km/h
Temperatur: 7°C
gefühlte Temperatur: 3°C
Taupunkt: 5°C
Luftfeuchte: 87%
Luftdruck: 1001 hPa
Zusammenfassung: sehr leichter Niederschlag
Clouds: geschlossene Wolkendecke
Visibility: 9 km
Cloud details: geschlossene Wolkendecke 274 m
2015/03/30 05:20 EDJA 300520Z 23019KT 9000 -RA OVC009 07/05 Q1001
LSME - Emmen, Switzerland
Distance from station: SW 90km
aktuell: 30.03.2015 06:50
sehr leichter Niederschlag, geschlossene Wolkendecke
sehr leichter Niederschlag, geschlossene Wolkendecke
 Wind von WSW
Wind: WSW 24 km/h
Temperatur: 10°C
gefühlte Temperatur: 7°C
Taupunkt: 5°C
Luftfeuchte: 71%
Luftdruck: 1007 hPa
Zusammenfassung: sehr leichter Niederschlag
Clouds: geschlossene Wolkendecke
Visibility: 10 km
Cloud details: geschlossene Wolkendecke 1311 m
2015/03/30 04:50 LSME 300450Z 24013KT 9999 -RA OVC043 10/05 Q1007 RMK WHT
 
LSZC - Buochs, Switzerland
Distance from station: SSW 98km
aktuell: 30.03.2015 07:20
sehr leichter Niederschlag, stark bewölkt
sehr leichter Niederschlag, stark bewölkt
 Wind von W
Wind: W 22 km/h
Temperatur: 10°C
gefühlte Temperatur: 7°C
Taupunkt: 5°C
Luftfeuchte: 71%
Luftdruck: 1007 hPa
Zusammenfassung: sehr leichter Niederschlag
Clouds: stark bewölkt
Visibility: 10 km
Cloud details: teilweise bewölkt 1829 m
stark bewölkt 2438 m
2015/03/30 05:20 LSZC 300520Z AUTO 26012KT 9999 -RA SCT060 BKN080 10/05 Q1007